Webb, Iowa
Current Conditions -  °F | °C
As of 2:53 PM on Tuesday 21 Oct 2014 (Local Time) from KSPW Reporting Station
Clear Clear  
Wind Chill: 69°   Ceiling: Unl
Heat Index: 69°   Visibility: 10mi
Dew Point: 42°   Wind: 12mph
Humidity: 38%   Direction: 140°SE
Pressure: 30.07"   Gusts: NA
Location:  42.95°N, 95.01°W
Report Text: KSPW 211953Z AUTO 14010KT 10SM CLR 21/06 A3007 RMK AO2 SLP185 T02060056 TSNO
Loading
Personal Weather Stations






























Interactive Weather Map
Tropical Storm Tracking
New forecast layout! Learn more

10-Day Weather Forecast

Advertisements
Track Severe Weather on mobile